sensor_id;sensor_type;location;lat;lon;timestamp;temperature;humidity
5392;DHT22;2719;53.624;9.786;2022-12-18T00:00:08;-1.10;99.90
5392;DHT22;2719;53.624;9.786;2022-12-18T00:02:35;-1.10;99.90
5392;DHT22;2719;53.624;9.786;2022-12-18T00:05:01;-1.10;99.90
5392;DHT22;2719;53.624;9.786;2022-12-18T00:07:28;-1.10;99.90
5392;DHT22;2719;53.624;9.786;2022-12-18T00:09:55;-1.10;99.90
5392;DHT22;2719;53.624;9.786;2022-12-18T00:12:21;-1.00;99.90
5392;DHT22;2719;53.624;9.786;2022-12-18T00:14:49;-1.10;99.90
5392;DHT22;2719;53.624;9.786;2022-12-18T00:17:16;-1.20;99.90
5392;DHT22;2719;53.624;9.786;2022-12-18T00:19:42;-1.20;99.90
5392;DHT22;2719;53.624;9.786;2022-12-18T00:22:09;-1.20;99.90
5392;DHT22;2719;53.624;9.786;2022-12-18T00:24:36;-1.20;99.90
5392;DHT22;2719;53.624;9.786;2022-12-18T00:27:02;-1.20;99.90
5392;DHT22;2719;53.624;9.786;2022-12-18T00:29:29;-1.10;99.90
5392;DHT22;2719;53.624;9.786;2022-12-18T00:31:57;-1.10;99.90
5392;DHT22;2719;53.624;9.786;2022-12-18T00:34:24;-1.10;99.90
5392;DHT22;2719;53.624;9.786;2022-12-18T00:36:50;-1.10;99.90
5392;DHT22;2719;53.624;9.786;2022-12-18T00:39:17;-1.00;99.90
5392;DHT22;2719;53.624;9.786;2022-12-18T00:41:44;-0.90;99.90
5392;DHT22;2719;53.624;9.786;2022-12-18T00:44:28;-1.10;99.90
5392;DHT22;2719;53.624;9.786;2022-12-18T00:46:56;-1.10;99.90
5392;DHT22;2719;53.624;9.786;2022-12-18T00:49:23;-1.10;99.90
5392;DHT22;2719;53.624;9.786;2022-12-18T00:51:49;-1.10;99.90
5392;DHT22;2719;53.624;9.786;2022-12-18T00:54:16;-1.20;99.90
5392;DHT22;2719;53.624;9.786;2022-12-18T00:56:44;-1.10;99.90
5392;DHT22;2719;53.624;9.786;2022-12-18T00:59:10;-1.10;99.90
5392;DHT22;2719;53.624;9.786;2022-12-18T01:01:37;-1.00;99.90
5392;DHT22;2719;53.624;9.786;2022-12-18T01:04:05;-1.10;99.90
5392;DHT22;2719;53.624;9.786;2022-12-18T01:06:32;-1.20;99.90
5392;DHT22;2719;53.624;9.786;2022-12-18T01:08:58;-1.20;99.90
5392;DHT22;2719;53.624;9.786;2022-12-18T01:11:25;-1.10;99.90
5392;DHT22;2719;53.624;9.786;2022-12-18T01:13:53;-1.10;99.90
5392;DHT22;2719;53.624;9.786;2022-12-18T01:16:20;-1.10;99.90
5392;DHT22;2719;53.624;9.786;2022-12-18T01:18:46;-1.10;99.90
5392;DHT22;2719;53.624;9.786;2022-12-18T01:21:16;-1.10;99.90
5392;DHT22;2719;53.624;9.786;2022-12-18T01:23:46;-1.20;99.90
5392;DHT22;2719;53.624;9.786;2022-12-18T01:26:14;-1.20;99.90
5392;DHT22;2719;53.624;9.786;2022-12-18T01:28:41;-1.30;99.90
5392;DHT22;2719;53.624;9.786;2022-12-18T01:31:13;-1.40;99.90
5392;DHT22;2719;53.624;9.786;2022-12-18T01:33:41;-1.50;99.90
5392;DHT22;2719;53.624;9.786;2022-12-18T01:36:08;-1.50;99.90
5392;DHT22;2719;53.624;9.786;2022-12-18T01:38:36;-1.50;99.90
5392;DHT22;2719;53.624;9.786;2022-12-18T01:41:02;-1.50;99.90
5392;DHT22;2719;53.624;9.786;2022-12-18T01:43:43;-1.40;99.90
5392;DHT22;2719;53.624;9.786;2022-12-18T01:46:11;-1.40;99.90
5392;DHT22;2719;53.624;9.786;2022-12-18T01:48:39;-1.30;99.90
5392;DHT22;2719;53.624;9.786;2022-12-18T01:51:08;-1.40;99.90
5392;DHT22;2719;53.624;9.786;2022-12-18T01:53:38;-1.40;99.90
5392;DHT22;2719;53.624;9.786;2022-12-18T01:56:07;-1.40;99.90
5392;DHT22;2719;53.624;9.786;2022-12-18T01:58:39;-1.30;99.90
5392;DHT22;2719;53.624;9.786;2022-12-18T02:01:07;-1.30;99.90
5392;DHT22;2719;53.624;9.786;2022-12-18T02:03:34;-1.30;99.90
5392;DHT22;2719;53.624;9.786;2022-12-18T02:06:07;-1.30;99.90
5392;DHT22;2719;53.624;9.786;2022-12-18T02:08:42;-1.20;99.90
5392;DHT22;2719;53.624;9.786;2022-12-18T02:11:17;-1.20;99.90
5392;DHT22;2719;53.624;9.786;2022-12-18T02:13:53;-1.20;99.90
5392;DHT22;2719;53.624;9.786;2022-12-18T02:16:27;-1.20;99.90
5392;DHT22;2719;53.624;9.786;2022-12-18T02:18:59;-1.20;99.90
5392;DHT22;2719;53.624;9.786;2022-12-18T02:21:32;-1.20;99.90
5392;DHT22;2719;53.624;9.786;2022-12-18T02:24:19;-1.20;99.90
5392;DHT22;2719;53.624;9.786;2022-12-18T02:26:55;-1.20;99.90
5392;DHT22;2719;53.624;9.786;2022-12-18T02:29:25;-1.20;99.90
5392;DHT22;2719;53.624;9.786;2022-12-18T02:31:56;-1.20;99.90
5392;DHT22;2719;53.624;9.786;2022-12-18T02:34:29;-1.30;99.90
5392;DHT22;2719;53.624;9.786;2022-12-18T02:36:57;-1.20;99.90
5392;DHT22;2719;53.624;9.786;2022-12-18T02:39:26;-1.20;99.90
5392;DHT22;2719;53.624;9.786;2022-12-18T02:41:55;-1.30;99.90
5392;DHT22;2719;53.624;9.786;2022-12-18T02:44:23;-1.30;99.90
5392;DHT22;2719;53.624;9.786;2022-12-18T02:46:51;-1.40;99.90
5392;DHT22;2719;53.624;9.786;2022-12-18T02:49:27;-1.30;99.90
5392;DHT22;2719;53.624;9.786;2022-12-18T02:52:01;-1.50;99.90
5392;DHT22;2719;53.624;9.786;2022-12-18T02:54:41;-1.50;99.90
5392;DHT22;2719;53.624;9.786;2022-12-18T02:57:16;-1.60;99.90
5392;DHT22;2719;53.624;9.786;2022-12-18T02:59:52;-1.50;99.90
5392;DHT22;2719;53.624;9.786;2022-12-18T03:02:25;-1.40;99.90
5392;DHT22;2719;53.624;9.786;2022-12-18T03:04:57;-1.60;99.90
5392;DHT22;2719;53.624;9.786;2022-12-18T03:07:34;-1.50;99.90
5392;DHT22;2719;53.624;9.786;2022-12-18T03:10:04;-1.40;99.90
5392;DHT22;2719;53.624;9.786;2022-12-18T03:12:36;-1.40;99.90
5392;DHT22;2719;53.624;9.786;2022-12-18T03:15:08;-1.40;99.90
5392;DHT22;2719;53.624;9.786;2022-12-18T03:17:36;-1.40;99.90
5392;DHT22;2719;53.624;9.786;2022-12-18T03:20:09;-1.30;99.90
5392;DHT22;2719;53.624;9.786;2022-12-18T03:22:38;-1.20;99.90
5392;DHT22;2719;53.624;9.786;2022-12-18T03:25:08;-1.20;99.90
5392;DHT22;2719;53.624;9.786;2022-12-18T03:27:42;-1.10;99.90
5392;DHT22;2719;53.624;9.786;2022-12-18T03:30:13;-1.20;99.90
5392;DHT22;2719;53.624;9.786;2022-12-18T03:32:43;-1.10;99.90
5392;DHT22;2719;53.624;9.786;2022-12-18T03:35:15;-1.10;99.90
5392;DHT22;2719;53.624;9.786;2022-12-18T03:37:46;-1.10;99.90
5392;DHT22;2719;53.624;9.786;2022-12-18T03:40:12;-1.20;99.90
5392;DHT22;2719;53.624;9.786;2022-12-18T03:42:46;-1.20;99.90
5392;DHT22;2719;53.624;9.786;2022-12-18T03:45:19;-1.10;99.90
5392;DHT22;2719;53.624;9.786;2022-12-18T03:47:57;-1.10;99.90
5392;DHT22;2719;53.624;9.786;2022-12-18T03:50:31;-1.00;99.90
5392;DHT22;2719;53.624;9.786;2022-12-18T03:53:08;-1.00;99.90
5392;DHT22;2719;53.624;9.786;2022-12-18T03:55:36;-0.90;99.90
5392;DHT22;2719;53.624;9.786;2022-12-18T03:58:06;-0.90;99.90
5392;DHT22;2719;53.624;9.786;2022-12-18T04:00:34;-0.90;99.90
5392;DHT22;2719;53.624;9.786;2022-12-18T04:03:02;-0.90;99.90
5392;DHT22;2719;53.624;9.786;2022-12-18T04:05:30;-0.90;99.90
5392;DHT22;2719;53.624;9.786;2022-12-18T04:08:00;-0.90;99.90
5392;DHT22;2719;53.624;9.786;2022-12-18T04:10:27;-0.90;99.90
5392;DHT22;2719;53.624;9.786;2022-12-18T04:12:56;-0.90;99.90
5392;DHT22;2719;53.624;9.786;2022-12-18T04:15:24;-0.90;99.90
5392;DHT22;2719;53.624;9.786;2022-12-18T04:17:51;-1.00;99.90
5392;DHT22;2719;53.624;9.786;2022-12-18T04:20:18;-1.00;99.90
5392;DHT22;2719;53.624;9.786;2022-12-18T04:22:45;-1.00;99.90
5392;DHT22;2719;53.624;9.786;2022-12-18T04:25:12;-1.10;99.90
5392;DHT22;2719;53.624;9.786;2022-12-18T04:27:39;-1.00;99.90
5392;DHT22;2719;53.624;9.786;2022-12-18T04:30:06;-1.00;99.90
5392;DHT22;2719;53.624;9.786;2022-12-18T04:32:35;-1.10;99.90
5392;DHT22;2719;53.624;9.786;2022-12-18T04:35:02;-1.20;99.90
5392;DHT22;2719;53.624;9.786;2022-12-18T04:37:32;-1.20;99.90
5392;DHT22;2719;53.624;9.786;2022-12-18T04:39:58;-1.20;99.90
5392;DHT22;2719;53.624;9.786;2022-12-18T04:42:25;-1.20;99.90
5392;DHT22;2719;53.624;9.786;2022-12-18T04:44:52;-1.20;99.90
5392;DHT22;2719;53.624;9.786;2022-12-18T04:47:18;-1.30;99.90
5392;DHT22;2719;53.624;9.786;2022-12-18T04:49:46;-1.30;99.90
5392;DHT22;2719;53.624;9.786;2022-12-18T04:52:13;-1.40;99.90
5392;DHT22;2719;53.624;9.786;2022-12-18T04:54:40;-1.40;99.90
5392;DHT22;2719;53.624;9.786;2022-12-18T04:57:06;-1.50;99.90
5392;DHT22;2719;53.624;9.786;2022-12-18T04:59:33;-1.50;99.90
5392;DHT22;2719;53.624;9.786;2022-12-18T05:01:59;-1.40;99.90
5392;DHT22;2719;53.624;9.786;2022-12-18T05:04:26;-1.40;99.90
5392;DHT22;2719;53.624;9.786;2022-12-18T05:06:54;-1.40;99.90
5392;DHT22;2719;53.624;9.786;2022-12-18T05:09:21;-1.40;99.90
5392;DHT22;2719;53.624;9.786;2022-12-18T05:11:47;-1.40;99.90
5392;DHT22;2719;53.624;9.786;2022-12-18T05:14:14;-1.40;99.90
5392;DHT22;2719;53.624;9.786;2022-12-18T05:16:40;-1.40;99.90
5392;DHT22;2719;53.624;9.786;2022-12-18T05:19:07;-1.50;99.90
5392;DHT22;2719;53.624;9.786;2022-12-18T05:21:34;-1.50;99.90
5392;DHT22;2719;53.624;9.786;2022-12-18T05:24:02;-1.50;99.90
5392;DHT22;2719;53.624;9.786;2022-12-18T05:26:29;-1.50;99.90
5392;DHT22;2719;53.624;9.786;2022-12-18T05:28:55;-1.50;99.90
5392;DHT22;2719;53.624;9.786;2022-12-18T05:31:22;-1.60;99.90
5392;DHT22;2719;53.624;9.786;2022-12-18T05:33:49;-1.60;99.90
5392;DHT22;2719;53.624;9.786;2022-12-18T05:36:15;-1.60;99.90
5392;DHT22;2719;53.624;9.786;2022-12-18T05:38:42;-1.60;99.90
5392;DHT22;2719;53.624;9.786;2022-12-18T05:41:10;-1.70;99.90
5392;DHT22;2719;53.624;9.786;2022-12-18T05:43:38;-1.70;99.90
5392;DHT22;2719;53.624;9.786;2022-12-18T05:46:06;-1.70;99.90
5392;DHT22;2719;53.624;9.786;2022-12-18T05:48:33;-1.70;99.90
5392;DHT22;2719;53.624;9.786;2022-12-18T05:51:04;-1.80;99.90
5392;DHT22;2719;53.624;9.786;2022-12-18T05:53:32;-1.80;99.90
5392;DHT22;2719;53.624;9.786;2022-12-18T05:56:00;-1.80;99.90
5392;DHT22;2719;53.624;9.786;2022-12-18T05:58:29;-1.80;99.90
5392;DHT22;2719;53.624;9.786;2022-12-18T06:00:57;-1.80;99.90
5392;DHT22;2719;53.624;9.786;2022-12-18T06:03:24;-1.80;99.90
5392;DHT22;2719;53.624;9.786;2022-12-18T06:05:51;-1.80;99.90
5392;DHT22;2719;53.624;9.786;2022-12-18T06:08:17;-1.80;99.90
5392;DHT22;2719;53.624;9.786;2022-12-18T06:10:50;-1.80;99.90
5392;DHT22;2719;53.624;9.786;2022-12-18T06:13:19;-1.80;99.90
5392;DHT22;2719;53.624;9.786;2022-12-18T06:15:47;-1.90;99.90
5392;DHT22;2719;53.624;9.786;2022-12-18T06:18:13;-1.90;99.90
5392;DHT22;2719;53.624;9.786;2022-12-18T06:20:40;-2.00;99.90
5392;DHT22;2719;53.624;9.786;2022-12-18T06:23:07;-2.00;99.90
5392;DHT22;2719;53.624;9.786;2022-12-18T06:25:39;-2.00;99.90
5392;DHT22;2719;53.624;9.786;2022-12-18T06:28:06;-2.00;99.90
5392;DHT22;2719;53.624;9.786;2022-12-18T06:30:32;-2.00;99.90
5392;DHT22;2719;53.624;9.786;2022-12-18T06:33:00;-2.00;99.90
5392;DHT22;2719;53.624;9.786;2022-12-18T06:35:27;-2.00;99.90
5392;DHT22;2719;53.624;9.786;2022-12-18T06:37:53;-2.00;99.90
5392;DHT22;2719;53.624;9.786;2022-12-18T06:40:20;-2.00;99.90
5392;DHT22;2719;53.624;9.786;2022-12-18T06:42:47;-2.00;99.90
5392;DHT22;2719;53.624;9.786;2022-12-18T06:45:14;-2.00;99.90
5392;DHT22;2719;53.624;9.786;2022-12-18T06:47:40;-2.10;99.90
5392;DHT22;2719;53.624;9.786;2022-12-18T06:50:09;-2.10;99.90
5392;DHT22;2719;53.624;9.786;2022-12-18T06:52:36;-2.10;99.90
5392;DHT22;2719;53.624;9.786;2022-12-18T06:55:05;-2.00;99.90
5392;DHT22;2719;53.624;9.786;2022-12-18T06:57:35;-2.00;99.90
5392;DHT22;2719;53.624;9.786;2022-12-18T07:00:03;-2.10;99.90
5392;DHT22;2719;53.624;9.786;2022-12-18T07:02:31;-2.10;99.90
5392;DHT22;2719;53.624;9.786;2022-12-18T07:04:58;-2.10;99.90
5392;DHT22;2719;53.624;9.786;2022-12-18T07:07:26;-2.00;99.90
5392;DHT22;2719;53.624;9.786;2022-12-18T07:09:53;-1.90;99.90
5392;DHT22;2719;53.624;9.786;2022-12-18T07:12:20;-2.00;99.90
5392;DHT22;2719;53.624;9.786;2022-12-18T07:14:46;-2.10;99.90
5392;DHT22;2719;53.624;9.786;2022-12-18T07:17:13;-2.20;99.90
5392;DHT22;2719;53.624;9.786;2022-12-18T07:19:40;-2.10;99.90
5392;DHT22;2719;53.624;9.786;2022-12-18T07:22:07;-2.10;99.90
5392;DHT22;2719;53.624;9.786;2022-12-18T07:24:35;-2.10;99.90
5392;DHT22;2719;53.624;9.786;2022-12-18T07:27:02;-2.20;99.90
5392;DHT22;2719;53.624;9.786;2022-12-18T07:29:28;-2.20;99.90
5392;DHT22;2719;53.624;9.786;2022-12-18T07:31:56;-2.30;99.90
5392;DHT22;2719;53.624;9.786;2022-12-18T07:34:22;-2.30;99.90
5392;DHT22;2719;53.624;9.786;2022-12-18T07:36:55;-2.40;99.90
5392;DHT22;2719;53.624;9.786;2022-12-18T07:39:29;-2.40;99.90
5392;DHT22;2719;53.624;9.786;2022-12-18T07:41:57;-2.40;99.90
5392;DHT22;2719;53.624;9.786;2022-12-18T07:44:41;-2.50;99.90
5392;DHT22;2719;53.624;9.786;2022-12-18T07:47:08;-2.50;99.90
5392;DHT22;2719;53.624;9.786;2022-12-18T07:49:34;-2.50;99.90
5392;DHT22;2719;53.624;9.786;2022-12-18T07:52:01;-2.60;99.90
5392;DHT22;2719;53.624;9.786;2022-12-18T07:54:28;-2.60;99.90
5392;DHT22;2719;53.624;9.786;2022-12-18T07:56:56;-2.60;99.90
5392;DHT22;2719;53.624;9.786;2022-12-18T07:59:23;-2.60;99.90
5392;DHT22;2719;53.624;9.786;2022-12-18T08:01:49;-2.60;99.90
5392;DHT22;2719;53.624;9.786;2022-12-18T08:04:16;-2.60;99.90
5392;DHT22;2719;53.624;9.786;2022-12-18T08:06:42;-2.70;99.90
5392;DHT22;2719;53.624;9.786;2022-12-18T08:09:09;-2.70;99.90
5392;DHT22;2719;53.624;9.786;2022-12-18T08:11:36;-2.70;99.90
5392;DHT22;2719;53.624;9.786;2022-12-18T08:14:04;-2.70;99.90
5392;DHT22;2719;53.624;9.786;2022-12-18T08:16:31;-2.70;99.90
5392;DHT22;2719;53.624;9.786;2022-12-18T08:18:57;-2.70;99.90
5392;DHT22;2719;53.624;9.786;2022-12-18T08:21:26;-2.70;99.90
5392;DHT22;2719;53.624;9.786;2022-12-18T08:23:54;-2.70;99.90
5392;DHT22;2719;53.624;9.786;2022-12-18T08:26:22;-2.70;99.90
5392;DHT22;2719;53.624;9.786;2022-12-18T08:28:49;-2.70;99.90
5392;DHT22;2719;53.624;9.786;2022-12-18T08:31:18;-2.70;99.90
5392;DHT22;2719;53.624;9.786;2022-12-18T08:33:44;-2.60;99.90
5392;DHT22;2719;53.624;9.786;2022-12-18T08:36:11;-2.60;99.90
5392;DHT22;2719;53.624;9.786;2022-12-18T08:38:37;-2.60;99.90
5392;DHT22;2719;53.624;9.786;2022-12-18T08:41:06;-2.60;99.90
5392;DHT22;2719;53.624;9.786;2022-12-18T08:43:33;-2.50;99.90
5392;DHT22;2719;53.624;9.786;2022-12-18T08:46:23;-2.60;99.90
5392;DHT22;2719;53.624;9.786;2022-12-18T08:48:51;-2.50;99.90
5392;DHT22;2719;53.624;9.786;2022-12-18T08:51:18;-2.50;99.90
5392;DHT22;2719;53.624;9.786;2022-12-18T08:53:45;-2.50;99.90
5392;DHT22;2719;53.624;9.786;2022-12-18T08:56:13;-2.50;99.90
5392;DHT22;2719;53.624;9.786;2022-12-18T08:58:40;-2.50;99.90
5392;DHT22;2719;53.624;9.786;2022-12-18T09:01:08;-2.50;99.90
5392;DHT22;2719;53.624;9.786;2022-12-18T09:03:36;-2.40;99.90
5392;DHT22;2719;53.624;9.786;2022-12-18T09:06:04;-2.40;99.90
5392;DHT22;2719;53.624;9.786;2022-12-18T09:08:30;-2.30;99.90
5392;DHT22;2719;53.624;9.786;2022-12-18T09:11:00;-2.30;99.90
5392;DHT22;2719;53.624;9.786;2022-12-18T09:13:27;-2.30;99.90
5392;DHT22;2719;53.624;9.786;2022-12-18T09:15:54;-2.30;99.90
5392;DHT22;2719;53.624;9.786;2022-12-18T09:18:23;-2.20;99.90
5392;DHT22;2719;53.624;9.786;2022-12-18T09:20:51;-2.20;99.90
5392;DHT22;2719;53.624;9.786;2022-12-18T09:23:18;-2.10;99.90
5392;DHT22;2719;53.624;9.786;2022-12-18T09:25:45;-2.10;99.90
5392;DHT22;2719;53.624;9.786;2022-12-18T09:28:13;-2.00;99.90
5392;DHT22;2719;53.624;9.786;2022-12-18T09:30:41;-2.00;99.90
5392;DHT22;2719;53.624;9.786;2022-12-18T09:33:08;-2.00;99.90
5392;DHT22;2719;53.624;9.786;2022-12-18T09:35:39;-2.10;99.90
5392;DHT22;2719;53.624;9.786;2022-12-18T09:38:08;-2.00;99.90
5392;DHT22;2719;53.624;9.786;2022-12-18T09:40:42;-1.90;99.90
5392;DHT22;2719;53.624;9.786;2022-12-18T09:43:15;-1.90;99.90
5392;DHT22;2719;53.624;9.786;2022-12-18T09:45:46;-1.80;99.90
5392;DHT22;2719;53.624;9.786;2022-12-18T09:48:17;-1.80;99.90
5392;DHT22;2719;53.624;9.786;2022-12-18T09:50:46;-1.70;99.90
5392;DHT22;2719;53.624;9.786;2022-12-18T09:53:18;-1.60;99.90
5392;DHT22;2719;53.624;9.786;2022-12-18T09:55:46;-1.50;99.90
5392;DHT22;2719;53.624;9.786;2022-12-18T09:58:16;-1.40;99.90
5392;DHT22;2719;53.624;9.786;2022-12-18T10:00:45;-1.40;99.90
5392;DHT22;2719;53.624;9.786;2022-12-18T10:03:15;-1.20;99.90
5392;DHT22;2719;53.624;9.786;2022-12-18T10:05:49;-1.20;99.90
5392;DHT22;2719;53.624;9.786;2022-12-18T10:08:24;-1.00;99.90
5392;DHT22;2719;53.624;9.786;2022-12-18T10:10:53;-1.00;99.90
5392;DHT22;2719;53.624;9.786;2022-12-18T10:13:28;-0.80;99.90
5392;DHT22;2719;53.624;9.786;2022-12-18T10:16:07;-0.70;99.90
5392;DHT22;2719;53.624;9.786;2022-12-18T10:21:31;-0.40;99.90
5392;DHT22;2719;53.624;9.786;2022-12-18T10:24:05;-0.30;99.90
5392;DHT22;2719;53.624;9.786;2022-12-18T10:26:34;-0.20;99.90
5392;DHT22;2719;53.624;9.786;2022-12-18T10:29:01;-0.10;99.90
5392;DHT22;2719;53.624;9.786;2022-12-18T10:31:30;-0.10;99.90
5392;DHT22;2719;53.624;9.786;2022-12-18T10:33:57;0.00;99.90
5392;DHT22;2719;53.624;9.786;2022-12-18T10:36:23;0.00;99.90
5392;DHT22;2719;53.624;9.786;2022-12-18T10:38:50;-0.10;99.90
5392;DHT22;2719;53.624;9.786;2022-12-18T10:41:26;-0.10;99.90
5392;DHT22;2719;53.624;9.786;2022-12-18T10:44:10;-0.10;99.90
5392;DHT22;2719;53.624;9.786;2022-12-18T10:46:37;-0.20;99.90
5392;DHT22;2719;53.624;9.786;2022-12-18T10:49:04;-0.10;99.90
5392;DHT22;2719;53.624;9.786;2022-12-18T10:51:33;0.00;99.90
5392;DHT22;2719;53.624;9.786;2022-12-18T10:54:02;0.10;99.90
5392;DHT22;2719;53.624;9.786;2022-12-18T10:56:33;0.30;99.90
5392;DHT22;2719;53.624;9.786;2022-12-18T10:59:03;0.40;99.90
5392;DHT22;2719;53.624;9.786;2022-12-18T11:01:45;0.50;99.90
5392;DHT22;2719;53.624;9.786;2022-12-18T11:04:18;0.60;99.90
5392;DHT22;2719;53.624;9.786;2022-12-18T11:06:57;0.70;99.90
5392;DHT22;2719;53.624;9.786;2022-12-18T11:09:26;0.80;99.90
5392;DHT22;2719;53.624;9.786;2022-12-18T11:11:56;0.80;99.90
5392;DHT22;2719;53.624;9.786;2022-12-18T11:14:27;0.80;99.90
5392;DHT22;2719;53.624;9.786;2022-12-18T11:16:55;0.80;99.90
5392;DHT22;2719;53.624;9.786;2022-12-18T11:19:30;0.70;99.90
5392;DHT22;2719;53.624;9.786;2022-12-18T11:21:58;0.70;99.90
5392;DHT22;2719;53.624;9.786;2022-12-18T11:24:30;0.90;99.90
5392;DHT22;2719;53.624;9.786;2022-12-18T11:27:01;0.90;99.90
5392;DHT22;2719;53.624;9.786;2022-12-18T11:29:32;0.90;99.90
5392;DHT22;2719;53.624;9.786;2022-12-18T11:32:25;0.90;99.90
5392;DHT22;2719;53.624;9.786;2022-12-18T11:34:58;0.90;99.90
5392;DHT22;2719;53.624;9.786;2022-12-18T11:37:25;1.00;99.90
5392;DHT22;2719;53.624;9.786;2022-12-18T11:39:57;1.00;99.90
5392;DHT22;2719;53.624;9.786;2022-12-18T11:42:32;1.00;99.90
5392;DHT22;2719;53.624;9.786;2022-12-18T11:45:08;1.20;99.90
5392;DHT22;2719;53.624;9.786;2022-12-18T11:47:47;1.20;99.90
5392;DHT22;2719;53.624;9.786;2022-12-18T11:50:18;1.40;99.90
5392;DHT22;2719;53.624;9.786;2022-12-18T11:52:45;1.30;99.90
5392;DHT22;2719;53.624;9.786;2022-12-18T11:55:13;1.40;99.90
5392;DHT22;2719;53.624;9.786;2022-12-18T11:57:50;1.30;99.90
5392;DHT22;2719;53.624;9.786;2022-12-18T12:00:22;1.20;99.90
5392;DHT22;2719;53.624;9.786;2022-12-18T12:03:07;1.20;99.90
5392;DHT22;2719;53.624;9.786;2022-12-18T12:05:47;1.10;99.90
5392;DHT22;2719;53.624;9.786;2022-12-18T12:08:20;1.20;99.90
5392;DHT22;2719;53.624;9.786;2022-12-18T12:10:55;1.20;99.90
5392;DHT22;2719;53.624;9.786;2022-12-18T12:13:38;1.10;99.90
5392;DHT22;2719;53.624;9.786;2022-12-18T12:16:15;1.00;99.90
5392;DHT22;2719;53.624;9.786;2022-12-18T12:19:01;1.10;99.90
5392;DHT22;2719;53.624;9.786;2022-12-18T12:21:36;1.00;99.90
5392;DHT22;2719;53.624;9.786;2022-12-18T12:24:18;1.00;99.90
5392;DHT22;2719;53.624;9.786;2022-12-18T12:26:55;1.00;99.90
5392;DHT22;2719;53.624;9.786;2022-12-18T12:29:36;1.00;99.90
5392;DHT22;2719;53.624;9.786;2022-12-18T12:32:17;1.00;99.90
5392;DHT22;2719;53.624;9.786;2022-12-18T12:34:52;1.10;99.90
5392;DHT22;2719;53.624;9.786;2022-12-18T12:37:30;1.10;99.90
5392;DHT22;2719;53.624;9.786;2022-12-18T12:40:01;1.10;99.90
5392;DHT22;2719;53.624;9.786;2022-12-18T12:42:32;1.20;99.90
5392;DHT22;2719;53.624;9.786;2022-12-18T12:45:24;1.10;99.90
5392;DHT22;2719;53.624;9.786;2022-12-18T12:47:54;1.10;99.90
5392;DHT22;2719;53.624;9.786;2022-12-18T12:50:21;1.10;99.90
5392;DHT22;2719;53.624;9.786;2022-12-18T12:52:51;1.20;99.90
5392;DHT22;2719;53.624;9.786;2022-12-18T12:55:21;1.20;99.90
5392;DHT22;2719;53.624;9.786;2022-12-18T12:57:54;1.10;99.90
5392;DHT22;2719;53.624;9.786;2022-12-18T13:00:25;1.10;99.90
5392;DHT22;2719;53.624;9.786;2022-12-18T13:02:59;0.90;99.90
5392;DHT22;2719;53.624;9.786;2022-12-18T13:05:32;1.00;99.90
5392;DHT22;2719;53.624;9.786;2022-12-18T13:08:03;1.00;99.90
5392;DHT22;2719;53.624;9.786;2022-12-18T13:10:33;1.20;99.90
5392;DHT22;2719;53.624;9.786;2022-12-18T13:13:01;1.30;99.90
5392;DHT22;2719;53.624;9.786;2022-12-18T13:15:33;1.30;99.90
5392;DHT22;2719;53.624;9.786;2022-12-18T13:18:05;1.30;99.90
5392;DHT22;2719;53.624;9.786;2022-12-18T13:20:34;1.30;99.90
5392;DHT22;2719;53.624;9.786;2022-12-18T13:23:29;1.10;99.90
5392;DHT22;2719;53.624;9.786;2022-12-18T13:25:57;1.10;99.90
5392;DHT22;2719;53.624;9.786;2022-12-18T13:28:53;1.10;99.90
5392;DHT22;2719;53.624;9.786;2022-12-18T13:34:21;1.00;99.90
5392;DHT22;2719;53.624;9.786;2022-12-18T13:36:49;0.90;99.90
5392;DHT22;2719;53.624;9.786;2022-12-18T13:39:24;0.80;99.90
5392;DHT22;2719;53.624;9.786;2022-12-18T13:41:52;0.70;99.90
5392;DHT22;2719;53.624;9.786;2022-12-18T13:44:29;0.80;99.90
5392;DHT22;2719;53.624;9.786;2022-12-18T13:46:57;0.60;99.90
5392;DHT22;2719;53.624;9.786;2022-12-18T13:49:26;0.60;99.90
5392;DHT22;2719;53.624;9.786;2022-12-18T13:51:55;0.60;99.90
5392;DHT22;2719;53.624;9.786;2022-12-18T13:54:29;0.50;99.90
5392;DHT22;2719;53.624;9.786;2022-12-18T13:56:56;0.60;99.90
5392;DHT22;2719;53.624;9.786;2022-12-18T13:59:25;0.50;99.90
5392;DHT22;2719;53.624;9.786;2022-12-18T14:01:54;0.50;99.90
5392;DHT22;2719;53.624;9.786;2022-12-18T14:04:25;0.50;99.90
5392;DHT22;2719;53.624;9.786;2022-12-18T14:06:55;0.50;99.90
5392;DHT22;2719;53.624;9.786;2022-12-18T14:09:25;0.50;99.90
5392;DHT22;2719;53.624;9.786;2022-12-18T14:11:53;0.50;99.90
5392;DHT22;2719;53.624;9.786;2022-12-18T14:14:44;0.60;99.90
5392;DHT22;2719;53.624;9.786;2022-12-18T14:17:13;0.50;99.90
5392;DHT22;2719;53.624;9.786;2022-12-18T14:19:44;0.40;99.90
5392;DHT22;2719;53.624;9.786;2022-12-18T14:22:16;0.30;99.90
5392;DHT22;2719;53.624;9.786;2022-12-18T14:24:43;0.10;99.90
5392;DHT22;2719;53.624;9.786;2022-12-18T14:27:28;0.20;99.90
5392;DHT22;2719;53.624;9.786;2022-12-18T14:29:56;0.20;99.90
5392;DHT22;2719;53.624;9.786;2022-12-18T14:32:23;0.10;99.90
5392;DHT22;2719;53.624;9.786;2022-12-18T14:34:51;0.00;99.90
5392;DHT22;2719;53.624;9.786;2022-12-18T14:37:21;0.00;99.90
5392;DHT22;2719;53.624;9.786;2022-12-18T14:39:56;-0.20;99.90
5392;DHT22;2719;53.624;9.786;2022-12-18T14:42:23;-0.10;99.90
5392;DHT22;2719;53.624;9.786;2022-12-18T14:47:55;0.10;99.90
5392;DHT22;2719;53.624;9.786;2022-12-18T14:50:22;0.80;99.90
5392;DHT22;2719;53.624;9.786;2022-12-18T14:52:49;0.30;99.90
5392;DHT22;2719;53.624;9.786;2022-12-18T14:55:17;0.10;99.90
5392;DHT22;2719;53.624;9.786;2022-12-18T14:57:44;-0.10;99.90
5392;DHT22;2719;53.624;9.786;2022-12-18T15:00:16;-0.10;99.90
5392;DHT22;2719;53.624;9.786;2022-12-18T15:02:46;-0.40;99.90
5392;DHT22;2719;53.624;9.786;2022-12-18T15:05:20;-0.40;99.90
5392;DHT22;2719;53.624;9.786;2022-12-18T15:07:48;-0.40;99.90
5392;DHT22;2719;53.624;9.786;2022-12-18T15:10:17;-0.60;99.90
5392;DHT22;2719;53.624;9.786;2022-12-18T15:12:47;-0.80;99.90
5392;DHT22;2719;53.624;9.786;2022-12-18T15:15:44;-0.80;99.90
5392;DHT22;2719;53.624;9.786;2022-12-18T15:18:12;-0.90;99.90
5392;DHT22;2719;53.624;9.786;2022-12-18T15:20:43;-0.80;99.90
5392;DHT22;2719;53.624;9.786;2022-12-18T15:23:14;-0.80;99.90
5392;DHT22;2719;53.624;9.786;2022-12-18T15:25:41;-0.80;99.90
5392;DHT22;2719;53.624;9.786;2022-12-18T15:28:17;-0.70;99.90
5392;DHT22;2719;53.624;9.786;2022-12-18T15:31:02;-0.80;99.90
5392;DHT22;2719;53.624;9.786;2022-12-18T15:33:32;-0.90;99.90
5392;DHT22;2719;53.624;9.786;2022-12-18T15:36:02;-1.10;99.90
5392;DHT22;2719;53.624;9.786;2022-12-18T15:38:29;-1.10;99.90
5392;DHT22;2719;53.624;9.786;2022-12-18T15:40:56;-1.10;99.90
5392;DHT22;2719;53.624;9.786;2022-12-18T15:43:24;-1.10;99.90
5392;DHT22;2719;53.624;9.786;2022-12-18T15:45:59;-1.00;99.90
5392;DHT22;2719;53.624;9.786;2022-12-18T15:48:26;-1.00;99.90
5392;DHT22;2719;53.624;9.786;2022-12-18T15:50:53;-1.00;99.90
5392;DHT22;2719;53.624;9.786;2022-12-18T15:53:23;-0.90;99.90
5392;DHT22;2719;53.624;9.786;2022-12-18T15:55:51;-0.90;99.90
5392;DHT22;2719;53.624;9.786;2022-12-18T15:58:35;-0.90;99.90
5392;DHT22;2719;53.624;9.786;2022-12-18T16:01:02;-0.90;99.90
5392;DHT22;2719;53.624;9.786;2022-12-18T16:03:28;-1.00;99.90
5392;DHT22;2719;53.624;9.786;2022-12-18T16:05:55;-0.90;99.90
5392;DHT22;2719;53.624;9.786;2022-12-18T16:08:25;-0.80;99.90
5392;DHT22;2719;53.624;9.786;2022-12-18T16:10:51;-0.80;99.90
5392;DHT22;2719;53.624;9.786;2022-12-18T16:13:19;-0.70;99.90
5392;DHT22;2719;53.624;9.786;2022-12-18T16:15:47;-0.80;99.90
5392;DHT22;2719;53.624;9.786;2022-12-18T16:18:13;-0.80;99.90
5392;DHT22;2719;53.624;9.786;2022-12-18T16:20:40;-0.80;99.90
5392;DHT22;2719;53.624;9.786;2022-12-18T16:23:07;-0.70;99.90
5392;DHT22;2719;53.624;9.786;2022-12-18T16:25:35;-0.70;99.90
5392;DHT22;2719;53.624;9.786;2022-12-18T16:28:02;-0.80;99.90
5392;DHT22;2719;53.624;9.786;2022-12-18T16:30:30;-0.70;99.90